sensor_id;sensor_type;location;lat;lon;timestamp;pressure;altitude;pressure_sealevel;temperature;humidity
35619;BME280;21743;55.786;37.168;2022-07-06T00:01:36;99601.94;;;17.29;81.65
35619;BME280;21743;55.786;37.168;2022-07-06T00:04:03;99607.63;;;17.33;81.92
35619;BME280;21743;55.786;37.168;2022-07-06T00:06:29;99598.94;;;17.32;81.54
35619;BME280;21743;55.786;37.168;2022-07-06T00:08:55;99588.16;;;17.27;81.37
35619;BME280;21743;55.786;37.168;2022-07-06T00:11:20;99600.31;;;17.28;81.65
35619;BME280;21743;55.786;37.168;2022-07-06T00:13:46;99581.66;;;17.23;81.49
35619;BME280;21743;55.786;37.168;2022-07-06T00:16:12;99596.44;;;17.24;81.73
35619;BME280;21743;55.786;37.168;2022-07-06T00:18:38;99589.13;;;17.19;81.40
35619;BME280;21743;55.786;37.168;2022-07-06T00:21:04;99590.69;;;17.14;81.32
35619;BME280;21743;55.786;37.168;2022-07-06T00:23:48;99583.59;;;17.14;81.37
35619;BME280;21743;55.786;37.168;2022-07-06T00:26:14;99580.75;;;17.09;82.04
35619;BME280;21743;55.786;37.168;2022-07-06T00:28:40;99566.03;;;17.15;81.69
35619;BME280;21743;55.786;37.168;2022-07-06T00:31:06;99569.91;;;17.19;81.52
35619;BME280;21743;55.786;37.168;2022-07-06T00:33:31;99562.38;;;17.16;81.44
35619;BME280;21743;55.786;37.168;2022-07-06T00:35:57;99558.31;;;17.13;81.26
35619;BME280;21743;55.786;37.168;2022-07-06T00:38:24;99560.72;;;17.08;81.33
35619;BME280;21743;55.786;37.168;2022-07-06T00:40:50;99563.97;;;17.10;81.67
35619;BME280;21743;55.786;37.168;2022-07-06T00:43:15;99566.19;;;17.13;81.54
35619;BME280;21743;55.786;37.168;2022-07-06T00:45:41;99579.16;;;17.15;81.60
35619;BME280;21743;55.786;37.168;2022-07-06T00:48:09;99573.47;;;17.11;81.00
35619;BME280;21743;55.786;37.168;2022-07-06T00:50:35;99584.75;;;17.05;81.38
35619;BME280;21743;55.786;37.168;2022-07-06T00:53:05;99587.56;;;17.04;81.33
35619;BME280;21743;55.786;37.168;2022-07-06T00:55:34;99589.00;;;17.06;81.53
35619;BME280;21743;55.786;37.168;2022-07-06T00:58:01;99590.19;;;17.04;81.33
35619;BME280;21743;55.786;37.168;2022-07-06T01:00:28;99592.03;;;17.03;81.48
35619;BME280;21743;55.786;37.168;2022-07-06T01:02:54;99588.31;;;16.98;81.39
35619;BME280;21743;55.786;37.168;2022-07-06T01:05:21;99586.91;;;16.95;81.46
35619;BME280;21743;55.786;37.168;2022-07-06T01:07:48;99601.47;;;16.98;81.43
35619;BME280;21743;55.786;37.168;2022-07-06T01:10:16;99596.19;;;16.98;81.56
35619;BME280;21743;55.786;37.168;2022-07-06T01:12:43;99595.78;;;16.94;81.33
35619;BME280;21743;55.786;37.168;2022-07-06T01:15:16;99587.28;;;16.92;81.29
35619;BME280;21743;55.786;37.168;2022-07-06T01:17:43;99583.38;;;16.88;81.51
35619;BME280;21743;55.786;37.168;2022-07-06T01:20:14;99589.66;;;16.87;81.62
35619;BME280;21743;55.786;37.168;2022-07-06T01:22:41;99591.47;;;16.86;81.62
35619;BME280;21743;55.786;37.168;2022-07-06T01:25:07;99587.81;;;16.87;81.62
35619;BME280;21743;55.786;37.168;2022-07-06T01:27:35;99592.00;;;16.82;81.83
35619;BME280;21743;55.786;37.168;2022-07-06T01:30:10;99597.44;;;16.80;82.14
35619;BME280;21743;55.786;37.168;2022-07-06T01:32:37;99591.19;;;16.81;82.12
35619;BME280;21743;55.786;37.168;2022-07-06T01:35:05;99594.63;;;16.82;81.99
35619;BME280;21743;55.786;37.168;2022-07-06T01:37:31;99599.03;;;16.75;82.27
35619;BME280;21743;55.786;37.168;2022-07-06T01:40:01;99600.84;;;16.74;82.31
35619;BME280;21743;55.786;37.168;2022-07-06T01:42:28;99604.47;;;16.73;82.50
35619;BME280;21743;55.786;37.168;2022-07-06T01:44:54;99602.91;;;16.79;82.74
35619;BME280;21743;55.786;37.168;2022-07-06T01:47:20;99611.03;;;16.84;82.50
35619;BME280;21743;55.786;37.168;2022-07-06T01:49:49;99611.47;;;16.87;82.59
35619;BME280;21743;55.786;37.168;2022-07-06T01:52:15;99601.78;;;16.88;82.50
35619;BME280;21743;55.786;37.168;2022-07-06T01:54:41;99607.72;;;16.97;82.23
35619;BME280;21743;55.786;37.168;2022-07-06T01:57:07;99614.59;;;16.98;82.60
35619;BME280;21743;55.786;37.168;2022-07-06T01:59:33;99612.78;;;16.98;82.64
35619;BME280;21743;55.786;37.168;2022-07-06T02:01:59;99608.13;;;16.94;82.41
35619;BME280;21743;55.786;37.168;2022-07-06T02:04:25;99608.66;;;16.89;82.61
35619;BME280;21743;55.786;37.168;2022-07-06T02:06:51;99608.22;;;16.85;82.64
35619;BME280;21743;55.786;37.168;2022-07-06T02:09:17;99606.16;;;16.81;82.99
35619;BME280;21743;55.786;37.168;2022-07-06T02:11:43;99606.78;;;16.83;82.96
35619;BME280;21743;55.786;37.168;2022-07-06T02:14:09;99606.59;;;16.84;83.14
35619;BME280;21743;55.786;37.168;2022-07-06T02:16:38;99617.00;;;16.93;83.09
35619;BME280;21743;55.786;37.168;2022-07-06T02:19:04;99616.88;;;17.01;83.36
35619;BME280;21743;55.786;37.168;2022-07-06T02:21:30;99622.00;;;17.09;82.93
35619;BME280;21743;55.786;37.168;2022-07-06T02:23:56;99611.91;;;17.12;82.76
35619;BME280;21743;55.786;37.168;2022-07-06T02:26:22;99614.75;;;17.11;82.67
35619;BME280;21743;55.786;37.168;2022-07-06T02:28:49;99609.28;;;17.12;82.84
35619;BME280;21743;55.786;37.168;2022-07-06T02:31:15;99612.72;;;17.13;82.78
35619;BME280;21743;55.786;37.168;2022-07-06T02:33:43;99607.47;;;17.13;82.75
35619;BME280;21743;55.786;37.168;2022-07-06T02:36:10;99612.97;;;17.18;82.81
35619;BME280;21743;55.786;37.168;2022-07-06T02:38:36;99613.59;;;17.20;83.14
35619;BME280;21743;55.786;37.168;2022-07-06T02:41:02;99613.41;;;17.21;83.17
35619;BME280;21743;55.786;37.168;2022-07-06T02:43:28;99612.59;;;17.21;83.37
35619;BME280;21743;55.786;37.168;2022-07-06T02:45:54;99608.16;;;17.21;83.66
35619;BME280;21743;55.786;37.168;2022-07-06T02:48:21;99605.53;;;17.21;83.61
35619;BME280;21743;55.786;37.168;2022-07-06T02:50:49;99599.72;;;17.26;83.78
35619;BME280;21743;55.786;37.168;2022-07-06T02:53:15;99594.47;;;17.33;83.80
35619;BME280;21743;55.786;37.168;2022-07-06T02:55:41;99600.63;;;17.40;83.87
35619;BME280;21743;55.786;37.168;2022-07-06T02:58:07;99584.69;;;17.48;83.80
35619;BME280;21743;55.786;37.168;2022-07-06T03:00:33;99581.69;;;17.57;83.71
35619;BME280;21743;55.786;37.168;2022-07-06T03:02:58;99587.19;;;17.63;83.49
35619;BME280;21743;55.786;37.168;2022-07-06T03:05:25;99590.03;;;17.61;83.69
35619;BME280;21743;55.786;37.168;2022-07-06T03:07:51;99586.84;;;17.66;83.42
35619;BME280;21743;55.786;37.168;2022-07-06T03:10:17;99580.59;;;17.73;83.79
35619;BME280;21743;55.786;37.168;2022-07-06T03:12:44;99584.50;;;17.77;83.65
35619;BME280;21743;55.786;37.168;2022-07-06T03:15:09;99581.03;;;17.77;83.94
35619;BME280;21743;55.786;37.168;2022-07-06T03:17:37;99598.91;;;17.81;84.16
35619;BME280;21743;55.786;37.168;2022-07-06T03:20:05;99596.88;;;17.83;84.51
35619;BME280;21743;55.786;37.168;2022-07-06T03:22:31;99590.00;;;17.89;84.69
35619;BME280;21743;55.786;37.168;2022-07-06T03:24:58;99590.44;;;17.92;84.58
35619;BME280;21743;55.786;37.168;2022-07-06T03:27:24;99595.94;;;17.98;84.82
35619;BME280;21743;55.786;37.168;2022-07-06T03:29:50;99595.56;;;18.01;85.04
35619;BME280;21743;55.786;37.168;2022-07-06T03:32:19;99601.28;;;18.11;85.22
35619;BME280;21743;55.786;37.168;2022-07-06T03:34:46;99602.53;;;18.21;85.41
35619;BME280;21743;55.786;37.168;2022-07-06T03:37:12;99603.19;;;18.30;85.54
35619;BME280;21743;55.786;37.168;2022-07-06T03:39:40;99603.81;;;18.32;85.78
35619;BME280;21743;55.786;37.168;2022-07-06T03:42:07;99606.25;;;18.40;85.80
35619;BME280;21743;55.786;37.168;2022-07-06T03:44:33;99604.25;;;18.49;86.33
35619;BME280;21743;55.786;37.168;2022-07-06T03:47:00;99602.44;;;18.56;86.62
35619;BME280;21743;55.786;37.168;2022-07-06T03:49:26;99603.91;;;18.65;86.76
35619;BME280;21743;55.786;37.168;2022-07-06T03:51:54;99600.91;;;18.75;87.10
35619;BME280;21743;55.786;37.168;2022-07-06T03:54:21;99602.53;;;18.82;86.78
35619;BME280;21743;55.786;37.168;2022-07-06T03:56:48;99595.25;;;18.91;86.83
35619;BME280;21743;55.786;37.168;2022-07-06T03:59:15;99600.31;;;18.99;86.96
35619;BME280;21743;55.786;37.168;2022-07-06T04:01:42;99607.03;;;19.08;86.73
35619;BME280;21743;55.786;37.168;2022-07-06T04:04:11;99603.38;;;19.16;86.95
35619;BME280;21743;55.786;37.168;2022-07-06T04:06:41;99600.56;;;19.24;86.82
35619;BME280;21743;55.786;37.168;2022-07-06T04:09:07;99607.44;;;19.31;87.05
35619;BME280;21743;55.786;37.168;2022-07-06T04:11:35;99600.31;;;19.45;86.86
35619;BME280;21743;55.786;37.168;2022-07-06T04:14:02;99596.28;;;19.56;86.67
35619;BME280;21743;55.786;37.168;2022-07-06T04:16:27;99588.97;;;19.64;86.53
35619;BME280;21743;55.786;37.168;2022-07-06T04:18:53;99592.19;;;19.73;85.96
35619;BME280;21743;55.786;37.168;2022-07-06T04:21:19;99581.41;;;19.81;85.46
35619;BME280;21743;55.786;37.168;2022-07-06T04:23:45;99577.34;;;19.85;85.20
35619;BME280;21743;55.786;37.168;2022-07-06T04:26:11;99574.47;;;19.93;85.02
35619;BME280;21743;55.786;37.168;2022-07-06T04:28:38;99574.00;;;20.03;84.54
35619;BME280;21743;55.786;37.168;2022-07-06T04:31:03;99580.50;;;20.14;84.42
35619;BME280;21743;55.786;37.168;2022-07-06T04:33:29;99568.88;;;20.21;84.86
35619;BME280;21743;55.786;37.168;2022-07-06T04:35:56;99570.47;;;20.29;84.57
35619;BME280;21743;55.786;37.168;2022-07-06T04:38:28;99572.69;;;20.39;84.30
35619;BME280;21743;55.786;37.168;2022-07-06T04:40:58;99569.56;;;20.48;84.40
35619;BME280;21743;55.786;37.168;2022-07-06T04:43:23;99570.16;;;20.57;84.31
35619;BME280;21743;55.786;37.168;2022-07-06T04:45:49;99574.75;;;20.68;83.97
35619;BME280;21743;55.786;37.168;2022-07-06T04:48:15;99571.41;;;20.79;83.08
35619;BME280;21743;55.786;37.168;2022-07-06T04:50:41;99570.16;;;20.88;82.90
35619;BME280;21743;55.786;37.168;2022-07-06T04:53:12;99573.09;;;20.98;82.69
35619;BME280;21743;55.786;37.168;2022-07-06T04:55:38;99566.59;;;21.01;82.90
35619;BME280;21743;55.786;37.168;2022-07-06T04:58:04;99565.94;;;21.05;82.90
35619;BME280;21743;55.786;37.168;2022-07-06T05:00:31;99570.56;;;21.10;82.98
35619;BME280;21743;55.786;37.168;2022-07-06T05:02:57;99564.84;;;21.13;83.19
35619;BME280;21743;55.786;37.168;2022-07-06T05:05:25;99566.84;;;21.18;82.86
35619;BME280;21743;55.786;37.168;2022-07-06T05:07:51;99563.53;;;21.29;81.87
35619;BME280;21743;55.786;37.168;2022-07-06T05:10:18;99563.81;;;21.39;82.10
35619;BME280;21743;55.786;37.168;2022-07-06T05:12:48;99556.66;;;21.46;82.00
35619;BME280;21743;55.786;37.168;2022-07-06T05:15:15;99554.38;;;21.50;81.63
35619;BME280;21743;55.786;37.168;2022-07-06T05:17:40;99553.47;;;21.56;81.01
35619;BME280;21743;55.786;37.168;2022-07-06T05:20:07;99553.22;;;21.64;81.00
35619;BME280;21743;55.786;37.168;2022-07-06T05:22:37;99548.28;;;21.67;81.51
35619;BME280;21743;55.786;37.168;2022-07-06T05:25:03;99548.06;;;21.69;81.08
35619;BME280;21743;55.786;37.168;2022-07-06T05:27:29;99550.25;;;21.72;80.41
35619;BME280;21743;55.786;37.168;2022-07-06T05:29:55;99537.97;;;21.77;79.96
35619;BME280;21743;55.786;37.168;2022-07-06T05:32:21;99546.34;;;21.93;79.83
35619;BME280;21743;55.786;37.168;2022-07-06T05:34:49;99554.28;;;21.99;78.66
35619;BME280;21743;55.786;37.168;2022-07-06T05:37:15;99552.94;;;22.08;78.37
35619;BME280;21743;55.786;37.168;2022-07-06T05:39:41;99547.09;;;22.18;78.00
35619;BME280;21743;55.786;37.168;2022-07-06T05:42:10;99557.75;;;22.30;77.69
35619;BME280;21743;55.786;37.168;2022-07-06T05:44:36;99555.59;;;22.38;77.49
35619;BME280;21743;55.786;37.168;2022-07-06T05:47:02;99562.28;;;22.41;77.38
35619;BME280;21743;55.786;37.168;2022-07-06T05:49:47;99561.75;;;22.51;77.93
35619;BME280;21743;55.786;37.168;2022-07-06T05:52:32;99552.66;;;22.58;77.38
35619;BME280;21743;55.786;37.168;2022-07-06T05:54:57;99544.16;;;22.68;76.86
35619;BME280;21743;55.786;37.168;2022-07-06T05:57:24;99545.47;;;22.77;76.91
35619;BME280;21743;55.786;37.168;2022-07-06T05:59:50;99550.31;;;22.80;75.92
35619;BME280;21743;55.786;37.168;2022-07-06T06:02:15;99545.72;;;22.87;75.83
35619;BME280;21743;55.786;37.168;2022-07-06T06:04:42;99544.56;;;22.95;74.92
35619;BME280;21743;55.786;37.168;2022-07-06T06:07:09;99541.59;;;23.03;73.81
35619;BME280;21743;55.786;37.168;2022-07-06T06:09:35;99545.53;;;23.12;74.82
35619;BME280;21743;55.786;37.168;2022-07-06T06:12:00;99544.84;;;23.17;74.17
35619;BME280;21743;55.786;37.168;2022-07-06T06:14:26;99553.03;;;23.27;75.18
35619;BME280;21743;55.786;37.168;2022-07-06T06:16:52;99549.22;;;23.34;73.74
35619;BME280;21743;55.786;37.168;2022-07-06T06:19:18;99540.66;;;23.44;73.16
35619;BME280;21743;55.786;37.168;2022-07-06T06:21:44;99546.72;;;23.51;72.12
35619;BME280;21743;55.786;37.168;2022-07-06T06:24:09;99542.19;;;23.63;71.01
35619;BME280;21743;55.786;37.168;2022-07-06T06:26:35;99538.69;;;23.74;71.59
35619;BME280;21743;55.786;37.168;2022-07-06T06:29:01;99532.66;;;23.91;71.46
35619;BME280;21743;55.786;37.168;2022-07-06T06:31:27;99537.34;;;24.00;72.39
35619;BME280;21743;55.786;37.168;2022-07-06T06:33:52;99533.28;;;24.09;72.46
35619;BME280;21743;55.786;37.168;2022-07-06T06:36:19;99541.59;;;24.25;72.33
35619;BME280;21743;55.786;37.168;2022-07-06T06:38:44;99533.53;;;24.36;71.25
35619;BME280;21743;55.786;37.168;2022-07-06T06:41:10;99542.75;;;24.45;69.23
35619;BME280;21743;55.786;37.168;2022-07-06T06:43:36;99535.78;;;24.56;69.52
35619;BME280;21743;55.786;37.168;2022-07-06T06:46:09;99533.84;;;24.68;70.09
35619;BME280;21743;55.786;37.168;2022-07-06T06:48:35;99532.16;;;24.79;68.76
35619;BME280;21743;55.786;37.168;2022-07-06T06:51:01;99535.09;;;24.94;68.07
35619;BME280;21743;55.786;37.168;2022-07-06T06:53:27;99532.50;;;24.99;67.67
35619;BME280;21743;55.786;37.168;2022-07-06T06:55:52;99540.16;;;24.96;66.37
35619;BME280;21743;55.786;37.168;2022-07-06T06:58:18;99541.78;;;24.97;66.38
35619;BME280;21743;55.786;37.168;2022-07-06T07:00:44;99552.84;;;25.05;67.48
35619;BME280;21743;55.786;37.168;2022-07-06T07:03:10;99541.69;;;25.08;65.26
35619;BME280;21743;55.786;37.168;2022-07-06T07:05:35;99543.50;;;25.03;64.26
35619;BME280;21743;55.786;37.168;2022-07-06T07:08:01;99539.59;;;24.94;63.57
35619;BME280;21743;55.786;37.168;2022-07-06T07:10:27;99539.13;;;24.97;65.19
35619;BME280;21743;55.786;37.168;2022-07-06T07:12:53;99536.78;;;25.00;65.53
35619;BME280;21743;55.786;37.168;2022-07-06T07:15:19;99534.13;;;25.17;67.33
35619;BME280;21743;55.786;37.168;2022-07-06T07:17:45;99529.25;;;25.31;65.20
35619;BME280;21743;55.786;37.168;2022-07-06T07:20:11;99524.31;;;25.39;64.72
35619;BME280;21743;55.786;37.168;2022-07-06T07:22:37;99528.91;;;25.44;64.60
35619;BME280;21743;55.786;37.168;2022-07-06T07:25:04;99524.47;;;25.49;64.40
35619;BME280;21743;55.786;37.168;2022-07-06T07:27:30;99531.22;;;25.57;65.01
35619;BME280;21743;55.786;37.168;2022-07-06T07:29:56;99535.47;;;25.75;64.63
35619;BME280;21743;55.786;37.168;2022-07-06T07:32:22;99524.44;;;25.88;64.11
35619;BME280;21743;55.786;37.168;2022-07-06T07:34:48;99525.31;;;25.93;62.75
35619;BME280;21743;55.786;37.168;2022-07-06T07:37:13;99522.69;;;25.99;62.37
35619;BME280;21743;55.786;37.168;2022-07-06T07:39:40;99516.59;;;26.03;60.88
35619;BME280;21743;55.786;37.168;2022-07-06T07:42:06;99524.91;;;26.07;61.10
35619;BME280;21743;55.786;37.168;2022-07-06T07:44:32;99530.34;;;26.17;61.21
35619;BME280;21743;55.786;37.168;2022-07-06T07:46:57;99526.44;;;26.24;61.08
35619;BME280;21743;55.786;37.168;2022-07-06T07:49:23;99526.81;;;26.33;60.31
35619;BME280;21743;55.786;37.168;2022-07-06T07:51:49;99529.56;;;26.43;61.28
35619;BME280;21743;55.786;37.168;2022-07-06T07:54:15;99524.38;;;26.58;60.78
35619;BME280;21743;55.786;37.168;2022-07-06T07:56:40;99523.72;;;26.73;59.77
35619;BME280;21743;55.786;37.168;2022-07-06T07:59:07;99525.34;;;26.79;59.18
35619;BME280;21743;55.786;37.168;2022-07-06T08:01:34;99520.53;;;26.76;58.54
35619;BME280;21743;55.786;37.168;2022-07-06T08:04:00;99525.53;;;26.68;59.57
35619;BME280;21743;55.786;37.168;2022-07-06T08:06:26;99521.31;;;26.72;57.30
35619;BME280;21743;55.786;37.168;2022-07-06T08:08:52;99515.50;;;26.80;59.53
35619;BME280;21743;55.786;37.168;2022-07-06T08:11:17;99515.13;;;26.98;59.84
35619;BME280;21743;55.786;37.168;2022-07-06T08:13:43;99514.16;;;27.14;57.77
35619;BME280;21743;55.786;37.168;2022-07-06T08:16:09;99528.97;;;27.32;57.98
35619;BME280;21743;55.786;37.168;2022-07-06T08:18:36;99522.06;;;27.41;57.47
35619;BME280;21743;55.786;37.168;2022-07-06T08:21:02;99527.47;;;27.51;57.70
35619;BME280;21743;55.786;37.168;2022-07-06T08:23:28;99516.88;;;27.61;57.72
35619;BME280;21743;55.786;37.168;2022-07-06T08:25:54;99521.44;;;27.71;58.06
35619;BME280;21743;55.786;37.168;2022-07-06T08:28:20;99524.16;;;27.76;57.61
35619;BME280;21743;55.786;37.168;2022-07-06T08:30:46;99518.78;;;27.81;55.44
35619;BME280;21743;55.786;37.168;2022-07-06T08:33:13;99514.22;;;27.72;55.34
35619;BME280;21743;55.786;37.168;2022-07-06T08:35:39;99524.09;;;27.66;55.90
35619;BME280;21743;55.786;37.168;2022-07-06T08:38:05;99517.97;;;27.71;55.53
35619;BME280;21743;55.786;37.168;2022-07-06T08:40:38;99512.13;;;27.79;54.83
35619;BME280;21743;55.786;37.168;2022-07-06T08:43:05;99511.09;;;27.90;55.29
35619;BME280;21743;55.786;37.168;2022-07-06T08:45:34;99509.50;;;27.99;55.73
35619;BME280;21743;55.786;37.168;2022-07-06T08:48:07;99510.03;;;27.91;54.06
35619;BME280;21743;55.786;37.168;2022-07-06T08:50:34;99511.34;;;27.88;55.88
35619;BME280;21743;55.786;37.168;2022-07-06T08:53:00;99506.03;;;27.93;55.03
35619;BME280;21743;55.786;37.168;2022-07-06T08:55:26;99502.53;;;27.98;55.92
35619;BME280;21743;55.786;37.168;2022-07-06T08:57:54;99511.41;;;28.14;55.94
35619;BME280;21743;55.786;37.168;2022-07-06T09:00:20;99512.50;;;28.18;54.90
35619;BME280;21743;55.786;37.168;2022-07-06T09:02:46;99508.94;;;27.97;53.81
35619;BME280;21743;55.786;37.168;2022-07-06T09:05:16;99510.78;;;27.81;54.18
35619;BME280;21743;55.786;37.168;2022-07-06T09:07:43;99505.94;;;27.73;56.03
35619;BME280;21743;55.786;37.168;2022-07-06T09:10:11;99504.63;;;27.76;56.01
35619;BME280;21743;55.786;37.168;2022-07-06T09:12:37;99508.66;;;27.83;55.09
35619;BME280;21743;55.786;37.168;2022-07-06T09:15:03;99502.22;;;27.84;56.38
35619;BME280;21743;55.786;37.168;2022-07-06T09:17:30;99502.50;;;27.78;54.72
35619;BME280;21743;55.786;37.168;2022-07-06T09:19:56;99497.94;;;27.78;56.56
35619;BME280;21743;55.786;37.168;2022-07-06T09:24:52;99499.34;;;28.01;56.55
35619;BME280;21743;55.786;37.168;2022-07-06T09:27:18;99495.06;;;28.00;53.70
35619;BME280;21743;55.786;37.168;2022-07-06T09:29:44;99488.94;;;28.05;56.13
35619;BME280;21743;55.786;37.168;2022-07-06T09:32:10;99488.94;;;28.15;55.60
35619;BME280;21743;55.786;37.168;2022-07-06T09:34:43;99483.63;;;28.20;51.82
35619;BME280;21743;55.786;37.168;2022-07-06T09:37:10;99487.59;;;28.12;52.81
35619;BME280;21743;55.786;37.168;2022-07-06T09:39:36;99494.03;;;28.16;54.02
35619;BME280;21743;55.786;37.168;2022-07-06T09:42:03;99483.63;;;28.20;52.44
35619;BME280;21743;55.786;37.168;2022-07-06T09:44:34;99463.78;;;28.06;51.96
35619;BME280;21743;55.786;37.168;2022-07-06T09:47:10;99468.38;;;28.20;51.33
35619;BME280;21743;55.786;37.168;2022-07-06T09:49:37;99483.06;;;28.18;51.05
35619;BME280;21743;55.786;37.168;2022-07-06T09:52:05;99486.28;;;28.10;53.04
35619;BME280;21743;55.786;37.168;2022-07-06T09:54:33;99477.44;;;28.09;52.42
35619;BME280;21743;55.786;37.168;2022-07-06T09:57:00;99481.97;;;28.14;53.52
35619;BME280;21743;55.786;37.168;2022-07-06T09:59:29;99484.47;;;28.25;54.48
35619;BME280;21743;55.786;37.168;2022-07-06T10:02:05;99481.00;;;28.40;53.65
35619;BME280;21743;55.786;37.168;2022-07-06T10:04:32;99475.88;;;28.44;52.09
35619;BME280;21743;55.786;37.168;2022-07-06T10:06:59;99473.75;;;28.51;52.69
35619;BME280;21743;55.786;37.168;2022-07-06T10:09:26;99460.66;;;28.54;53.89
35619;BME280;21743;55.786;37.168;2022-07-06T10:11:55;99471.59;;;28.63;51.98
35619;BME280;21743;55.786;37.168;2022-07-06T10:14:27;99473.22;;;28.64;49.50
35619;BME280;21743;55.786;37.168;2022-07-06T10:17:01;99466.78;;;28.65;47.81
35619;BME280;21743;55.786;37.168;2022-07-06T10:19:28;99467.06;;;28.58;49.86
35619;BME280;21743;55.786;37.168;2022-07-06T10:21:56;99466.78;;;28.60;50.21
35619;BME280;21743;55.786;37.168;2022-07-06T10:24:24;99470.81;;;28.62;49.92
35619;BME280;21743;55.786;37.168;2022-07-06T10:26:50;99463.03;;;28.66;51.73
35619;BME280;21743;55.786;37.168;2022-07-06T10:29:17;99457.44;;;28.67;52.10
35619;BME280;21743;55.786;37.168;2022-07-06T10:31:44;99457.16;;;28.64;51.80
35619;BME280;21743;55.786;37.168;2022-07-06T10:34:12;99462.22;;;28.60;51.29
35619;BME280;21743;55.786;37.168;2022-07-06T10:36:41;99458.50;;;28.66;50.64
35619;BME280;21743;55.786;37.168;2022-07-06T10:39:07;99451.81;;;28.69;49.77
35619;BME280;21743;55.786;37.168;2022-07-06T10:41:51;99448.59;;;28.67;50.05
35619;BME280;21743;55.786;37.168;2022-07-06T10:44:20;99446.44;;;28.64;51.16
35619;BME280;21743;55.786;37.168;2022-07-06T10:47:05;99442.69;;;28.65;50.96
35619;BME280;21743;55.786;37.168;2022-07-06T10:49:31;99448.06;;;28.65;47.28
35619;BME280;21743;55.786;37.168;2022-07-06T10:51:57;99443.25;;;28.52;46.56
35619;BME280;21743;55.786;37.168;2022-07-06T10:54:23;99446.19;;;28.45;47.55
35619;BME280;21743;55.786;37.168;2022-07-06T10:56:50;99439.50;;;28.48;47.93
35619;BME280;21743;55.786;37.168;2022-07-06T11:02:15;99445.13;;;28.51;48.90
35619;BME280;21743;55.786;37.168;2022-07-06T11:04:42;99436.28;;;28.41;48.30
35619;BME280;21743;55.786;37.168;2022-07-06T11:07:17;99427.47;;;28.40;49.40
35619;BME280;21743;55.786;37.168;2022-07-06T11:09:54;99429.84;;;28.42;51.54
35619;BME280;21743;55.786;37.168;2022-07-06T11:12:21;99430.13;;;28.35;49.94
35619;BME280;21743;55.786;37.168;2022-07-06T11:14:48;99430.38;;;28.28;49.19
35619;BME280;21743;55.786;37.168;2022-07-06T11:17:15;99427.97;;;28.22;49.97
35619;BME280;21743;55.786;37.168;2022-07-06T11:19:57;99418.84;;;28.18;50.60
35619;BME280;21743;55.786;37.168;2022-07-06T11:22:24;99422.06;;;28.15;50.63
35619;BME280;21743;55.786;37.168;2022-07-06T11:24:50;99417.75;;;28.14;50.52
35619;BME280;21743;55.786;37.168;2022-07-06T11:27:22;99413.22;;;28.04;50.38
35619;BME280;21743;55.786;37.168;2022-07-06T11:29:48;99410.25;;;28.00;50.11
35619;BME280;21743;55.786;37.168;2022-07-06T11:32:13;99414.53;;;28.01;49.81
35619;BME280;21743;55.786;37.168;2022-07-06T11:34:41;99412.13;;;28.00;49.99
35619;BME280;21743;55.786;37.168;2022-07-06T11:37:14;99404.66;;;28.02;50.76
35619;BME280;21743;55.786;37.168;2022-07-06T11:39:41;99410.28;;;28.06;48.99
35619;BME280;21743;55.786;37.168;2022-07-06T11:42:12;99409.75;;;28.09;48.51
35619;BME280;21743;55.786;37.168;2022-07-06T11:44:39;99411.63;;;28.08;48.96
35619;BME280;21743;55.786;37.168;2022-07-06T11:47:07;99404.94;;;28.11;49.29
35619;BME280;21743;55.786;37.168;2022-07-06T11:49:35;99394.50;;;28.14;47.54
35619;BME280;21743;55.786;37.168;2022-07-06T11:52:08;99395.06;;;28.21;46.70
35619;BME280;21743;55.786;37.168;2022-07-06T11:54:34;99396.63;;;28.17;48.06
35619;BME280;21743;55.786;37.168;2022-07-06T11:57:00;99406.00;;;28.15;47.86
35619;BME280;21743;55.786;37.168;2022-07-06T11:59:31;99407.34;;;28.07;47.72
35619;BME280;21743;55.786;37.168;2022-07-06T12:04:28;99399.59;;;27.95;48.74
35619;BME280;21743;55.786;37.168;2022-07-06T12:06:55;99405.47;;;27.92;48.66
35619;BME280;21743;55.786;37.168;2022-07-06T12:09:21;99395.81;;;27.86;47.52
35619;BME280;21743;55.786;37.168;2022-07-06T12:11:47;99393.44;;;27.95;47.38
35619;BME280;21743;55.786;37.168;2022-07-06T12:14:19;99394.50;;;28.04;48.55
35619;BME280;21743;55.786;37.168;2022-07-06T12:16:47;99400.13;;;28.08;48.19
35619;BME280;21743;55.786;37.168;2022-07-06T12:19:13;99401.19;;;28.07;47.83
35619;BME280;21743;55.786;37.168;2022-07-06T12:21:49;99405.22;;;28.09;47.79
35619;BME280;21743;55.786;37.168;2022-07-06T12:24:24;99396.63;;;28.12;47.66
35619;BME280;21743;55.786;37.168;2022-07-06T12:26:51;99399.88;;;28.19;46.85
35619;BME280;21743;55.786;37.168;2022-07-06T12:29:18;99400.69;;;28.20;46.71
35619;BME280;21743;55.786;37.168;2022-07-06T12:31:55;99400.38;;;28.16;47.40
35619;BME280;21743;55.786;37.168;2022-07-06T12:34:28;99388.06;;;28.15;48.21
35619;BME280;21743;55.786;37.168;2022-07-06T12:37:06;99381.91;;;28.15;47.92
35619;BME280;21743;55.786;37.168;2022-07-06T12:39:44;99383.25;;;28.12;47.37
35619;BME280;21743;55.786;37.168;2022-07-06T12:42:13;99389.41;;;28.02;47.20
35619;BME280;21743;55.786;37.168;2022-07-06T12:44:46;99385.38;;;28.00;47.20
35619;BME280;21743;55.786;37.168;2022-07-06T12:47:12;99378.97;;;28.01;47.38
35619;BME280;21743;55.786;37.168;2022-07-06T12:49:41;99386.47;;;28.09;47.90
35619;BME280;21743;55.786;37.168;2022-07-06T12:52:15;99382.97;;;28.14;48.41
35619;BME280;21743;55.786;37.168;2022-07-06T12:54:49;99386.19;;;28.16;48.28
35619;BME280;21743;55.786;37.168;2022-07-06T12:57:23;99388.88;;;28.16;48.70
35619;BME280;21743;55.786;37.168;2022-07-06T13:02:30;99393.94;;;28.12;47.71